KRKD

Knox County Regional Airport

Airport
ICAO code
KRKD
IATA Code
RKD
Summary
ICAO Region
NAM
ICAO Territory
Location

Owls Head, Maine

Serving
Rockland
Elevation
56 ft
Coordinates
44° 3' 43" N , 69° 5' 40" W
KCC
Airport CFIT
Altimeter Temperature Error Correction
Airport WX
Cumulonimbus
Metar
KRKD 270956Z AUTO 05007KT 1 1/4SM BR OVC003 11/11 A3013 RMK AO2 SLP202 T01060106

Knox County Regional Airport is a public use airport located 3 nm south of the central business district of Rockland, a city in Knox County, Maine.

Runways

Designator Length Width Surface Rops
3/21 1189 30 ASP Yes/Yes
13/31 1526 30 ASP Yes/Yes

Airport map

Aerial View

SKYbrary Partners:

Safety knowledge contributed by: